createdAt,value
2019-04-22T00:01:40.456Z,46.60
2019-04-22T00:04:47.163Z,46.50
2019-04-22T00:07:51.457Z,46.50
2019-04-22T00:10:52.148Z,46.50
2019-04-22T00:13:46.827Z,46.50
2019-04-22T00:16:38.830Z,46.60
2019-04-22T00:19:33.876Z,46.60
2019-04-22T00:22:23.864Z,46.70
2019-04-22T00:25:19.705Z,46.70
2019-04-22T00:28:08.698Z,46.70
2019-04-22T00:31:09.953Z,46.70
2019-04-22T00:33:59.145Z,46.70
2019-04-22T00:36:54.937Z,46.80
2019-04-22T00:39:53.894Z,46.20
2019-04-22T00:42:50.212Z,46.70
2019-04-22T00:48:35.970Z,46.80
2019-04-22T00:51:29.034Z,46.80
2019-04-22T00:54:25.674Z,46.80
2019-04-22T00:57:15.840Z,46.80
2019-04-22T01:00:11.954Z,46.20
2019-04-22T01:03:11.836Z,46.80
2019-04-22T01:05:56.841Z,46.90
2019-04-22T01:11:44.919Z,47.00
2019-04-22T01:14:41.659Z,47.20
2019-04-22T01:17:35.902Z,47.20
2019-04-22T01:20:57.468Z,47.20
2019-04-22T01:23:23.789Z,47.20
2019-04-22T01:26:09.876Z,47.10
2019-04-22T01:29:02.437Z,47.00
2019-04-22T01:31:45.618Z,47.20
2019-04-22T01:34:55.262Z,47.00
2019-04-22T01:37:52.507Z,46.80
2019-04-22T01:40:52.594Z,47.40
2019-04-22T01:43:51.855Z,46.80
2019-04-22T01:46:47.658Z,47.20
2019-04-22T01:49:33.353Z,47.50
2019-04-22T01:52:29.412Z,47.60
2019-04-22T01:55:29.532Z,47.00
2019-04-22T01:58:11.077Z,46.90
2019-04-22T02:01:18.380Z,47.50
2019-04-22T02:04:08.857Z,46.90
2019-04-22T02:07:02.157Z,47.80
2019-04-22T02:12:45.970Z,47.60
2019-04-22T02:15:47.331Z,47.70
2019-04-22T02:18:44.925Z,47.90
2019-04-22T02:21:35.445Z,47.30
2019-04-22T02:24:33.472Z,47.90
2019-04-22T02:27:29.213Z,47.80
2019-04-22T02:30:14.471Z,47.20
2019-04-22T02:33:51.336Z,47.20
2019-04-22T02:41:54.751Z,46.90
2019-04-22T02:44:58.397Z,47.70
2019-04-22T02:47:47.567Z,47.70
2019-04-22T02:50:51.875Z,47.50
2019-04-22T02:56:31.935Z,47.70
2019-04-22T02:59:25.887Z,47.70
2019-04-22T03:02:21.460Z,47.80
2019-04-22T03:05:23.982Z,48.10
2019-04-22T03:08:14.906Z,47.60
2019-04-22T03:11:04.091Z,47.50
2019-04-22T03:13:57.501Z,47.40
2019-04-22T03:38:41.496Z,47.10
2019-04-22T03:41:50.070Z,47.50
2019-04-22T03:47:31.956Z,47.40
2019-04-22T03:50:23.778Z,47.40
2019-04-22T03:53:09.736Z,47.40
2019-04-22T03:56:04.713Z,47.50
2019-04-22T04:08:35.683Z,48.00
2019-04-22T04:11:37.714Z,47.50
2019-04-22T04:14:26.965Z,47.40
2019-04-22T04:23:07.961Z,47.30
2019-04-22T04:26:05.141Z,47.30
2019-04-22T04:35:07.161Z,47.10
2019-04-22T04:40:41.736Z,47.40
2019-04-22T04:43:25.225Z,47.20
2019-04-22T05:40:16.282Z,40.90
2019-04-22T05:43:00.257Z,39.90
2019-04-22T05:46:01.106Z,39.60
2019-04-22T05:49:08.436Z,40.40
2019-04-22T05:52:04.705Z,38.80
2019-04-22T05:54:50.530Z,38.60
2019-04-22T05:57:37.216Z,38.60
2019-04-22T06:01:04.233Z,37.70
2019-04-22T06:03:28.672Z,38.40
2019-04-22T06:09:32.346Z,37.70
2019-04-22T06:12:26.507Z,37.10
2019-04-22T06:15:24.244Z,37.20
2019-04-22T06:18:23.925Z,38.30
2019-04-22T06:27:08.071Z,37.90
2019-04-22T06:29:59.170Z,38.10
2019-04-22T06:33:00.807Z,40.00
2019-04-22T06:35:54.619Z,39.00
2019-04-22T06:38:46.659Z,38.00
2019-04-22T06:41:47.954Z,38.30
2019-04-22T06:44:46.890Z,38.50
2019-04-22T06:47:43.851Z,39.40
2019-04-22T06:50:38.495Z,37.40
2019-04-22T06:53:31.387Z,37.30
2019-04-22T06:56:22.139Z,36.80
2019-04-22T06:59:19.093Z,38.00
2019-04-22T07:05:13.143Z,36.40
2019-04-22T07:08:12.800Z,36.80
2019-04-22T07:10:50.324Z,37.60
2019-04-22T07:13:48.551Z,36.30
2019-04-22T07:16:43.498Z,37.60
2019-04-22T07:19:42.258Z,38.10
2019-04-22T07:22:38.931Z,36.90
2019-04-22T07:25:34.827Z,37.00
2019-04-22T07:28:24.470Z,36.80
2019-04-22T07:31:32.542Z,36.90
2019-04-22T07:34:34.592Z,35.70
2019-04-22T07:37:31.369Z,35.80
2019-04-22T07:40:16.926Z,35.60
2019-04-22T07:43:13.748Z,35.70
2019-04-22T07:46:07.163Z,35.50
2019-04-22T07:49:02.367Z,33.50
2019-04-22T07:52:01.019Z,34.70
2019-04-22T07:54:53.042Z,35.60
2019-04-22T07:57:36.533Z,35.80
2019-04-22T08:03:37.482Z,36.50
2019-04-22T08:06:30.975Z,35.60
2019-04-22T08:09:33.572Z,35.30
2019-04-22T08:15:14.423Z,34.60
2019-04-22T08:18:15.196Z,35.20
2019-04-22T08:21:19.735Z,34.50
2019-04-22T08:24:01.244Z,34.60
2019-04-22T08:27:01.223Z,34.10
2019-04-22T08:29:58.664Z,34.40
2019-04-22T08:32:46.060Z,34.50
2019-04-22T08:36:00.866Z,33.60
2019-04-22T08:38:48.394Z,33.50
2019-04-22T08:41:39.889Z,33.80
2019-04-22T08:44:52.098Z,34.40
2019-04-22T08:47:31.183Z,33.60
2019-04-22T08:53:16.070Z,33.80
2019-04-22T08:56:21.998Z,33.00
2019-04-22T09:01:57.457Z,33.00
2019-04-22T09:04:48.011Z,33.30
2019-04-22T09:07:47.009Z,33.20
2019-04-22T09:13:35.502Z,33.40
2019-04-22T09:19:40.574Z,35.30
2019-04-22T09:22:47.300Z,33.10
2019-04-22T09:25:43.312Z,33.20
2019-04-22T09:31:23.921Z,33.60
2019-04-22T09:34:29.785Z,34.40
2019-04-22T09:37:27.176Z,34.20
2019-04-22T09:40:15.646Z,33.90
2019-04-22T09:43:11.424Z,34.40
2019-04-22T09:45:57.410Z,34.60
2019-04-22T09:51:54.072Z,34.20
2019-04-22T09:54:53.190Z,34.50
2019-04-22T09:57:47.123Z,34.50
2019-04-22T10:00:46.365Z,35.20
2019-04-22T10:03:42.487Z,35.80
2019-04-22T10:06:36.685Z,35.70
2019-04-22T10:12:19.255Z,36.30
2019-04-22T10:15:13.742Z,36.20
2019-04-22T10:18:12.788Z,36.50
2019-04-22T10:21:08.673Z,36.30
2019-04-22T10:24:03.421Z,35.30
2019-04-22T10:26:55.209Z,35.50
2019-04-22T10:29:54.043Z,35.20
2019-04-22T10:38:06.043Z,35.90
2019-04-22T10:40:58.667Z,36.40
2019-04-22T10:43:52.849Z,35.40
2019-04-22T10:46:48.505Z,35.00
2019-04-22T10:49:42.648Z,35.20
2019-04-22T10:52:37.181Z,34.20
2019-04-22T10:55:30.056Z,34.90
2019-04-22T10:58:24.976Z,34.90
2019-04-22T11:01:19.199Z,34.10
2019-04-22T11:04:15.295Z,34.50
2019-04-22T11:07:11.112Z,34.40
2019-04-22T11:10:20.583Z,34.20
2019-04-22T11:12:58.931Z,34.70
2019-04-22T11:15:52.798Z,34.50
2019-04-22T11:18:47.568Z,34.60
2019-04-22T11:21:41.567Z,34.60
2019-04-22T11:24:36.936Z,35.00
2019-04-22T11:27:30.807Z,35.30
2019-04-22T11:30:26.393Z,34.80
2019-04-22T11:33:18.408Z,34.20
2019-04-22T11:36:13.473Z,34.30
2019-04-22T11:39:10.859Z,34.00
2019-04-22T11:44:59.339Z,34.40
2019-04-22T11:50:48.319Z,34.40
2019-04-22T11:56:36.943Z,34.30
2019-04-22T11:59:38.530Z,34.40
2019-04-22T12:02:34.202Z,34.10
2019-04-22T12:05:30.097Z,34.40
2019-04-22T12:08:25.031Z,35.50
2019-04-22T12:11:20.653Z,34.60
2019-04-22T12:14:15.825Z,35.00
2019-04-22T12:17:11.485Z,35.40
2019-04-22T12:20:08.734Z,35.50
2019-04-22T12:23:03.236Z,35.50
2019-04-22T12:26:03.599Z,35.90
2019-04-22T12:28:53.263Z,36.70
2019-04-22T12:31:45.662Z,35.90
2019-04-22T12:34:39.886Z,36.20
2019-04-22T12:37:40.532Z,36.70
2019-04-22T12:40:39.460Z,37.20
2019-04-22T12:43:23.839Z,37.40
2019-04-22T12:46:16.375Z,38.10
2019-04-22T12:49:09.914Z,36.70
2019-04-22T12:52:05.169Z,37.40
2019-04-22T12:55:03.875Z,37.40
2019-04-22T12:57:58.650Z,37.00
2019-04-22T13:00:52.637Z,36.60
2019-04-22T13:03:46.471Z,37.20
2019-04-22T13:06:39.914Z,36.90
2019-04-22T13:09:33.506Z,36.70
2019-04-22T13:12:26.667Z,36.70
2019-04-22T13:15:20.131Z,37.30
2019-04-22T13:18:21.363Z,37.00
2019-04-22T13:21:06.715Z,36.70
2019-04-22T13:24:00.080Z,36.70
2019-04-22T13:26:53.098Z,36.90
2019-04-22T13:29:46.841Z,36.90
2019-04-22T13:35:31.840Z,37.20
2019-04-22T13:38:35.374Z,37.30
2019-04-22T13:41:35.718Z,37.30
2019-04-22T13:44:25.470Z,37.50
2019-04-22T13:47:34.747Z,37.50
2019-04-22T13:50:54.475Z,37.70
2019-04-22T13:56:19.068Z,38.00
2019-04-22T14:02:24.378Z,38.20
2019-04-22T14:05:19.970Z,38.20
2019-04-22T14:08:14.565Z,38.90
2019-04-22T14:11:18.279Z,38.40
2019-04-22T14:14:03.278Z,38.50
2019-04-22T14:16:55.870Z,38.60
2019-04-22T14:19:48.544Z,40.80
2019-04-22T14:22:41.407Z,38.70
2019-04-22T14:25:34.575Z,38.80
2019-04-22T14:28:28.886Z,38.80
2019-04-22T14:31:24.085Z,39.00
2019-04-22T14:34:18.788Z,39.10
2019-04-22T14:37:12.330Z,39.10
2019-04-22T14:40:08.808Z,39.20
2019-04-22T14:43:20.181Z,39.20
2019-04-22T14:46:35.038Z,38.70
2019-04-22T14:49:11.751Z,39.40
2019-04-22T14:52:10.777Z,39.40
2019-04-22T14:54:49.270Z,39.50
2019-04-22T14:57:31.736Z,39.50
2019-04-22T15:00:26.202Z,39.50
2019-04-22T15:03:19.681Z,39.60
2019-04-22T15:06:13.477Z,39.70
2019-04-22T15:09:10.291Z,39.70
2019-04-22T15:12:11.137Z,39.80
2019-04-22T15:14:57.547Z,39.80
2019-04-22T15:17:56.751Z,39.80
2019-04-22T15:21:02.716Z,39.90
2019-04-22T15:23:56.401Z,39.90
2019-04-22T15:26:50.738Z,39.90
2019-04-22T15:29:45.072Z,40.00
2019-04-22T15:32:39.060Z,39.90
2019-04-22T15:35:33.557Z,40.10
2019-04-22T15:38:28.071Z,40.10
2019-04-22T15:41:20.998Z,40.10
2019-04-22T15:47:08.999Z,40.20
2019-04-22T15:50:01.845Z,40.20
2019-04-22T15:52:58.907Z,40.20
2019-04-22T15:55:50.618Z,40.30
2019-04-22T15:58:43.777Z,40.20
2019-04-22T16:01:40.657Z,40.30
2019-04-22T16:04:30.925Z,40.30
2019-04-22T16:07:25.967Z,40.40
2019-04-22T16:10:19.668Z,40.40
2019-04-22T16:13:20.184Z,40.40
2019-04-22T16:16:06.779Z,40.50
2019-04-22T16:19:00.636Z,40.60
2019-04-22T16:22:00.655Z,40.50
2019-04-22T16:25:21.023Z,40.50
2019-04-22T16:28:13.493Z,40.50
2019-04-22T16:31:09.081Z,40.50
2019-04-22T16:34:02.674Z,40.50
2019-04-22T16:36:56.624Z,40.50
2019-04-22T16:39:50.489Z,40.60
2019-04-22T16:45:35.789Z,40.80
2019-04-22T16:48:27.943Z,40.70
2019-04-22T16:51:20.572Z,40.60
2019-04-22T16:54:13.840Z,40.80
2019-04-22T16:57:08.134Z,40.80
2019-04-22T17:00:02.739Z,40.80
2019-04-22T17:06:23.432Z,40.90
2019-04-22T17:09:17.762Z,40.90
2019-04-22T17:12:13.879Z,40.90
2019-04-22T17:15:09.860Z,40.90
2019-04-22T17:18:03.191Z,40.90
2019-04-22T17:21:00.322Z,40.90
2019-04-22T17:23:55.831Z,41.00
2019-04-22T17:26:50.449Z,40.90
2019-04-22T17:29:44.269Z,41.00
2019-04-22T17:32:37.844Z,41.00
2019-04-22T17:35:31.576Z,41.00
2019-04-22T17:38:36.179Z,41.00
2019-04-22T17:41:33.937Z,41.00
2019-04-22T17:47:33.194Z,41.00
2019-04-22T17:50:40.224Z,41.00
2019-04-22T17:53:33.725Z,41.00
2019-04-22T17:56:29.450Z,40.90
2019-04-22T17:59:20.336Z,40.90
2019-04-22T18:02:06.455Z,40.90
2019-04-22T18:04:51.748Z,40.90
2019-04-22T18:07:54.537Z,40.90
2019-04-22T18:13:44.077Z,40.90
2019-04-22T18:16:38.159Z,40.90
2019-04-22T18:19:31.527Z,41.00
2019-04-22T18:22:20.334Z,41.00
2019-04-22T18:25:11.472Z,41.00
2019-04-22T18:28:23.842Z,40.90
2019-04-22T18:31:06.608Z,41.00
2019-04-22T18:34:02.071Z,41.00
2019-04-22T18:36:58.177Z,40.90
2019-04-22T18:39:52.684Z,41.00
2019-04-22T18:42:52.579Z,41.00
2019-04-22T18:45:47.484Z,41.50
2019-04-22T18:48:34.999Z,40.90
2019-04-22T18:51:33.962Z,40.80
2019-04-22T18:54:53.386Z,40.80
2019-04-22T18:58:05.437Z,40.90
2019-04-22T19:00:43.963Z,40.80
2019-04-22T19:03:48.979Z,40.80
2019-04-22T19:06:50.512Z,40.80
2019-04-22T19:09:56.278Z,40.80
2019-04-22T19:12:41.611Z,40.80
2019-04-22T19:15:36.370Z,40.80
2019-04-22T19:18:36.447Z,40.80
2019-04-22T19:21:19.311Z,40.80
2019-04-22T19:24:15.041Z,40.80
2019-04-22T19:27:09.623Z,40.90
2019-04-22T19:30:14.318Z,40.90
2019-04-22T19:32:59.150Z,40.80
2019-04-22T19:35:49.096Z,40.80
2019-04-22T19:38:38.803Z,40.80
2019-04-22T19:41:40.805Z,40.90
2019-04-22T19:44:36.442Z,41.00
2019-04-22T19:47:33.356Z,40.90
2019-04-22T19:50:24.476Z,41.00
2019-04-22T19:53:19.363Z,41.00
2019-04-22T19:56:06.050Z,41.00
2019-04-22T19:58:56.282Z,41.10
2019-04-22T20:02:09.650Z,41.10
2019-04-22T20:05:26.753Z,41.10
2019-04-22T20:08:17.778Z,41.10
2019-04-22T20:11:15.159Z,41.10
2019-04-22T20:14:07.361Z,41.10
2019-04-22T20:16:49.157Z,41.20
2019-04-22T20:22:44.459Z,41.20
2019-04-22T20:25:34.688Z,41.10
2019-04-22T20:28:37.909Z,41.20
2019-04-22T20:31:25.365Z,41.20
2019-04-22T20:34:38.031Z,41.20
2019-04-22T20:37:26.248Z,41.20
2019-04-22T20:40:10.799Z,41.10
2019-04-22T20:43:10.504Z,41.00
2019-04-22T20:46:03.115Z,41.00
2019-04-22T20:48:56.941Z,41.00
2019-04-22T20:51:53.449Z,41.00
2019-04-22T20:54:40.724Z,41.10
2019-04-22T20:57:34.613Z,41.10
2019-04-22T21:00:26.543Z,41.10
2019-04-22T21:03:15.982Z,41.00
2019-04-22T21:09:12.201Z,41.00
2019-04-22T21:12:02.651Z,41.00
2019-04-22T21:15:00.198Z,41.00
2019-04-22T21:17:53.802Z,41.00
2019-04-22T21:20:51.528Z,41.00
2019-04-22T21:23:34.959Z,41.00
2019-04-22T21:26:33.701Z,41.10
2019-04-22T21:29:26.695Z,41.10
2019-04-22T21:32:25.199Z,41.10
2019-04-22T21:35:21.829Z,41.10
2019-04-22T21:38:08.424Z,41.10
2019-04-22T21:40:59.893Z,41.10
2019-04-22T21:43:58.453Z,41.10
2019-04-22T21:46:57.296Z,41.10
2019-04-22T21:52:32.064Z,41.20
2019-04-22T21:55:29.668Z,41.20
2019-04-22T21:58:31.819Z,41.20
2019-04-22T22:01:50.022Z,41.30
2019-04-22T22:07:13.896Z,41.30
2019-04-22T22:10:24.539Z,41.40
2019-04-22T22:13:17.131Z,41.30
2019-04-22T22:16:06.601Z,41.30
2019-04-22T22:19:09.836Z,41.90
2019-04-22T22:22:28.495Z,41.40
2019-04-22T22:24:58.278Z,41.40
2019-04-22T22:27:44.360Z,41.50
2019-04-22T22:30:47.626Z,41.60
2019-04-22T22:33:35.140Z,41.50
2019-04-22T22:36:27.148Z,41.60
2019-04-22T22:39:14.691Z,41.60
2019-04-22T22:41:55.715Z,41.70
2019-04-22T22:44:54.541Z,41.70
2019-04-22T22:48:09.465Z,41.80
2019-04-22T22:50:50.939Z,41.80
2019-04-22T22:53:57.063Z,41.90
2019-04-22T22:56:47.407Z,41.90
2019-04-22T22:59:38.269Z,42.00
2019-04-22T23:02:42.684Z,42.00
2019-04-22T23:05:35.525Z,42.00
2019-04-22T23:08:25.768Z,42.10
2019-04-22T23:11:20.917Z,42.10
2019-04-22T23:14:17.568Z,42.00
2019-04-22T23:16:51.311Z,42.00
2019-04-22T23:19:44.757Z,42.00
2019-04-22T23:22:58.808Z,42.10
2019-04-22T23:25:54.994Z,42.10
2019-04-22T23:28:43.545Z,42.10
2019-04-22T23:31:45.425Z,42.20
2019-04-22T23:34:50.044Z,42.20
2019-04-22T23:37:39.376Z,42.20
2019-04-22T23:40:38.417Z,42.20
2019-04-22T23:43:32.764Z,42.20
2019-04-22T23:46:21.559Z,42.10
2019-04-22T23:49:18.067Z,42.30
2019-04-22T23:52:22.405Z,42.30
2019-04-22T23:55:11.651Z,42.30
2019-04-22T23:58:03.525Z,42.30
